Time;durP1;ratioP1;P1;durP2;ratioP2;P2;SDS_P1;SDS_P2;PMS_P1;PMS_P2;Temp;Humidity;BMP_temperature;BMP_pressure;BME280_temperature;BME280_humidity;BME280_pressure;Samples;Min_cycle;Max_cycle;Signal;HPM_P1;HPM_P2
2021/07/12 00:01:12;;;;;;;6.18;4.85;;;23.70;77.40;;;;;;5019758;28;20457;-69
2021/07/12 00:03:38;;;;;;;7.97;5.10;;;23.70;77.50;;;;;;5026856;28;20075;-69
2021/07/12 00:06:03;;;;;;;8.57;4.72;;;23.70;77.60;;;;;;5016239;28;20037;-69
2021/07/12 00:08:29;;;;;;;8.15;5.43;;;23.60;77.80;;;;;;5020539;28;20076;-69
2021/07/12 00:10:55;;;;;;;8.40;4.75;;;23.60;77.70;;;;;;5019752;28;20450;-69
2021/07/12 00:13:20;;;;;;;9.55;4.90;;;23.60;77.70;;;;;;5013682;28;20108;-69
2021/07/12 00:15:46;;;;;;;6.13;4.72;;;23.60;77.70;;;;;;5012624;28;20727;-69
2021/07/12 00:18:12;;;;;;;7.40;4.82;;;23.60;77.80;;;;;;5011543;28;20018;-69
2021/07/12 00:20:38;;;;;;;7.22;4.82;;;23.60;77.90;;;;;;5012550;28;20084;-69
2021/07/12 00:23:03;;;;;;;9.63;4.68;;;23.50;78.40;;;;;;5024877;28;20040;-69
2021/07/12 00:25:30;;;;;;;5.65;4.93;;;23.50;77.80;;;;;;5021221;28;20120;-69
2021/07/12 00:28:00;;;;;;;7.35;4.93;;;23.50;77.80;;;;;;5026519;28;20036;-69
2021/07/12 00:30:27;;;;;;;5.40;4.47;;;23.50;77.80;;;;;;5013491;28;20034;-69
2021/07/12 00:32:56;;;;;;;6.57;4.72;;;23.50;77.80;;;;;;5014022;28;20097;-69
2021/07/12 00:35:22;;;;;;;6.45;5.38;;;23.40;77.80;;;;;;5014581;28;20456;-69
2021/07/12 00:37:48;;;;;;;8.13;5.70;;;23.40;77.90;;;;;;5020346;28;20048;-69
2021/07/12 00:40:16;;;;;;;7.30;5.70;;;23.40;78.00;;;;;;5034641;28;20484;-69
2021/07/12 00:42:42;;;;;;;8.82;5.60;;;23.40;78.10;;;;;;5022655;28;20384;-69
2021/07/12 00:45:12;;;;;;;11.25;6.10;;;23.30;78.10;;;;;;5029972;28;20485;-69
2021/07/12 00:47:38;;;;;;;9.98;6.05;;;23.40;78.30;;;;;;5028147;28;20032;-69
2021/07/12 00:50:07;;;;;;;9.20;6.03;;;23.30;78.30;;;;;;5029724;28;20026;-69
2021/07/12 00:52:34;;;;;;;8.13;5.65;;;23.30;78.50;;;;;;5025376;28;20018;-69
2021/07/12 00:55:01;;;;;;;10.07;5.82;;;23.30;78.60;;;;;;5013903;28;20022;-69
2021/07/12 00:57:26;;;;;;;14.13;6.07;;;23.20;78.60;;;;;;5029309;28;20045;-69
2021/07/12 00:59:52;;;;;;;8.65;5.53;;;23.20;78.60;;;;;;5013129;28;20018;-69
2021/07/12 01:02:18;;;;;;;9.98;5.80;;;23.30;78.70;;;;;;5039048;28;20059;-69
2021/07/12 01:04:44;;;;;;;12.82;6.30;;;23.20;78.70;;;;;;5041675;28;20037;-69
2021/07/12 01:07:13;;;;;;;8.10;5.57;;;23.20;78.80;;;;;;5027462;28;20048;-69
2021/07/12 01:09:39;;;;;;;10.63;6.32;;;23.20;78.90;;;;;;5037000;28;20033;-69
2021/07/12 01:12:25;;;;;;;11.05;5.57;;;23.20;79.10;;;;;;5020202;28;20100;-69
2021/07/12 01:15:05;;;;;;;9.82;5.75;;;23.10;79.10;;;;;;4991393;28;20033;-69
2021/07/12 01:17:59;;;;;;;8.70;6.70;;;23.10;79.20;;;;;;5022209;28;20040;-69
2021/07/12 01:20:36;;;;;;;7.80;6.00;;;23.10;79.20;;;;;;5020735;28;20052;-69
2021/07/12 01:23:17;;;;;;;8.18;6.18;;;23.10;79.20;;;;;;5017420;28;20037;-69
2021/07/12 01:26:08;;;;;;;11.75;6.00;;;23.10;79.20;;;;;;5015981;28;20050;-69
2021/07/12 01:29:02;;;;;;;12.45;5.47;;;23.00;79.10;;;;;;5017742;28;20152;-69
2021/07/12 01:31:28;;;;;;;7.95;5.97;;;23.00;79.20;;;;;;5024401;28;20084;-69
2021/07/12 01:34:09;;;;;;;8.35;5.85;;;23.00;79.40;;;;;;5015471;28;20121;-69
2021/07/12 01:36:43;;;;;;;6.95;5.65;;;23.00;79.50;;;;;;5047646;28;20499;-69
2021/07/12 01:39:23;;;;;;;8.75;6.57;;;23.00;79.50;;;;;;5034201;28;20056;-69
2021/07/12 01:42:08;;;;;;;12.93;6.60;;;22.90;79.50;;;;;;5022029;28;20027;-69
2021/07/12 01:44:37;;;;;;;;;;;23.00;79.70;;;;;;5032683;28;20038;-69
2021/07/12 01:47:07;;;;;;;11.05;6.20;;;22.90;79.40;;;;;;5033767;28;19915;-69
2021/07/12 01:50:04;;;;;;;7.57;6.03;;;22.90;79.50;;;;;;5032248;28;20109;-69
2021/07/12 01:52:47;;;;;;;14.48;6.40;;;22.90;79.70;;;;;;5014636;28;20068;-69
2021/07/12 01:55:21;;;;;;;13.20;5.97;;;22.90;79.70;;;;;;5026777;28;20507;-69
2021/07/12 01:57:53;;;;;;;;;;;22.80;79.70;;;;;;5015056;28;20088;-69
2021/07/12 02:00:23;;;;;;;9.18;6.03;;;22.80;79.50;;;;;;5026207;28;20398;-69
2021/07/12 02:02:58;;;;;;;14.02;6.70;;;22.80;79.60;;;;;;5028337;28;20427;-69
2021/07/12 02:05:38;;;;;;;16.25;6.97;;;22.80;79.90;;;;;;5016405;28;20109;-69
2021/07/12 02:08:09;;;;;;;12.55;7.15;;;22.80;80.00;;;;;;5013779;28;20026;-69
2021/07/12 02:10:40;;;;;;;9.55;7.13;;;22.80;80.00;;;;;;5044733;28;20029;-69
2021/07/12 02:13:09;;;;;;;9.27;6.10;;;22.70;80.10;;;;;;5035103;28;20045;-69
2021/07/12 02:15:46;;;;;;;10.05;7.15;;;22.80;79.90;;;;;;5013880;28;20112;-69
2021/07/12 02:18:34;;;;;;;16.15;7.88;;;22.80;80.00;;;;;;5014832;28;20133;-69
2021/07/12 02:21:17;;;;;;;10.15;7.57;;;22.70;80.10;;;;;;5013696;28;20363;-69
2021/07/12 02:23:48;;;;;;;11.70;8.77;;;22.70;80.00;;;;;;5028275;28;20033;-69
2021/07/12 02:26:16;;;;;;;11.68;7.93;;;22.70;80.10;;;;;;5019767;28;20072;-69
2021/07/12 02:28:47;;;;;;;15.30;8.23;;;22.70;80.30;;;;;;5023961;28;20436;-69
2021/07/12 02:31:16;;;;;;;13.52;8.43;;;22.70;80.40;;;;;;5016872;28;20038;-72
2021/07/12 02:33:43;;;;;;;11.93;7.95;;;22.60;80.30;;;;;;5014562;28;20026;-69
2021/07/12 02:36:11;;;;;;;11.93;6.35;;;22.70;80.20;;;;;;5017197;28;20496;-70
2021/07/12 02:38:39;;;;;;;10.35;4.60;;;22.60;79.80;;;;;;5015190;28;20026;-72
2021/07/12 02:41:05;;;;;;;6.50;3.95;;;22.60;79.20;;;;;;5015232;28;20120;-72
2021/07/12 02:43:33;;;;;;;7.03;4.22;;;22.60;78.70;;;;;;5014670;28;20033;-69
2021/07/12 02:46:00;;;;;;;8.15;5.28;;;22.50;78.30;;;;;;5017527;28;20022;-68
2021/07/12 02:48:28;;;;;;;14.75;5.90;;;22.50;78.20;;;;;;5014731;28;20409;-69
2021/07/12 02:50:57;;;;;;;11.80;7.10;;;22.50;78.40;;;;;;5013346;28;20053;-69
2021/07/12 02:53:29;;;;;;;10.90;7.07;;;22.50;78.80;;;;;;5017348;28;20022;-69
2021/07/12 02:55:56;;;;;;;16.25;8.93;;;22.50;79.00;;;;;;5013854;28;20389;-69
2021/07/12 02:58:22;;;;;;;10.23;5.93;;;22.50;79.20;;;;;;5014207;28;20493;-69
2021/07/12 03:00:49;;;;;;;12.68;7.57;;;22.50;79.00;;;;;;5015679;28;20087;-68
2021/07/12 03:03:15;;;;;;;12.13;6.53;;;22.40;79.00;;;;;;5016980;28;20026;-70
2021/07/12 03:05:43;;;;;;;10.35;6.10;;;22.50;79.10;;;;;;5012944;28;20038;-69
2021/07/12 03:08:25;;;;;;;8.65;6.68;;;22.50;79.00;;;;;;5017208;28;20042;-69
2021/07/12 03:10:57;;;;;;;9.25;6.63;;;22.40;79.10;;;;;;5013233;28;20137;-69
2021/07/12 03:13:29;;;;;;;11.65;6.80;;;22.40;79.20;;;;;;5025674;28;20045;-69
2021/07/12 03:15:59;;;;;;;10.30;6.88;;;22.40;79.60;;;;;;5013309;28;20018;-68
2021/07/12 03:18:37;;;;;;;13.93;8.30;;;22.40;79.80;;;;;;5011178;28;20060;-69
2021/07/12 03:21:05;;;;;;;11.65;8.18;;;22.40;80.00;;;;;;5013673;28;20564;-69
2021/07/12 03:23:42;;;;;;;13.20;7.80;;;22.40;80.30;;;;;;5014177;28;20030;-69
2021/07/12 03:26:11;;;;;;;13.43;7.32;;;22.30;80.30;;;;;;5012253;28;20038;-69
2021/07/12 03:28:40;;;;;;;11.05;5.82;;;22.40;80.30;;;;;;5024680;28;20499;-69
2021/07/12 03:31:09;;;;;;;12.75;5.25;;;22.30;80.20;;;;;;5022612;28;20040;-69
2021/07/12 03:33:39;;;;;;;8.13;5.78;;;22.30;79.90;;;;;;5011167;28;20452;-69
2021/07/12 03:36:05;;;;;;;7.85;5.57;;;22.30;79.80;;;;;;5014696;28;20034;-69
2021/07/12 03:38:31;;;;;;;9.38;5.25;;;22.20;79.80;;;;;;5023396;28;20038;-69
2021/07/12 03:40:59;;;;;;;8.07;4.68;;;22.20;79.70;;;;;;5013915;28;20494;-68
2021/07/12 03:43:25;;;;;;;7.47;4.55;;;22.20;80.00;;;;;;5016501;28;20037;-69
2021/07/12 03:46:01;;;;;;;8.77;5.40;;;22.20;80.20;;;;;;5015676;28;20412;-69
2021/07/12 03:48:43;;;;;;;8.65;5.28;;;22.20;80.60;;;;;;5038352;28;20033;-69
2021/07/12 03:51:14;;;;;;;;;;;22.20;80.70;;;;;;5022259;28;20034;-69
2021/07/12 03:53:43;;;;;;;13.07;5.85;;;22.20;80.30;;;;;;5014647;28;19917;-69
2021/07/12 03:56:09;;;;;;;13.48;6.68;;;22.20;80.80;;;;;;5022959;28;20037;-69
2021/07/12 03:58:35;;;;;;;9.93;6.82;;;22.20;81.10;;;;;;5021749;28;20048;-69
2021/07/12 04:01:00;;;;;;;11.35;6.38;;;22.20;81.40;;;;;;5025851;28;20035;-69
2021/07/12 04:03:26;;;;;;;16.60;7.05;;;22.20;81.50;;;;;;5015149;28;20117;-69
2021/07/12 04:05:52;;;;;;;13.68;6.88;;;22.20;81.70;;;;;;5015402;28;20044;-69
2021/07/12 04:08:17;;;;;;;13.98;8.52;;;22.20;81.80;;;;;;5013010;28;20030;-69
2021/07/12 04:10:43;;;;;;;12.85;7.72;;;22.20;81.90;;;;;;5026158;28;20087;-69
2021/07/12 04:13:09;;;;;;;10.38;7.35;;;22.20;81.90;;;;;;5025271;28;20179;-68
2021/07/12 04:15:35;;;;;;;10.48;7.55;;;22.20;82.00;;;;;;5027069;28;20029;-69
2021/07/12 04:18:01;;;;;;;8.15;6.38;;;22.20;82.10;;;;;;5013012;28;20030;-69
2021/07/12 04:20:26;;;;;;;8.70;6.03;;;22.20;82.10;;;;;;5028756;28;20037;-69
2021/07/12 04:22:52;;;;;;;9.48;6.57;;;22.20;81.90;;;;;;5023765;28;20383;-69
2021/07/12 04:25:18;;;;;;;14.68;6.13;;;22.20;82.00;;;;;;5012837;28;20489;-69
2021/07/12 04:27:44;;;;;;;10.80;6.68;;;22.20;82.20;;;;;;5029985;28;20036;-69
2021/07/12 04:30:10;;;;;;;14.20;9.85;;;22.20;82.40;;;;;;5019584;28;20046;-69
2021/07/12 04:32:36;;;;;;;14.27;10.73;;;22.20;82.70;;;;;;5018145;28;20540;-69
2021/07/12 04:35:03;;;;;;;16.50;10.70;;;22.20;83.10;;;;;;5030179;28;20037;-69
2021/07/12 04:37:29;;;;;;;15.82;11.57;;;22.20;83.40;;;;;;5022713;28;20026;-69
2021/07/12 04:39:54;;;;;;;15.85;11.75;;;22.30;83.50;;;;;;5019214;28;20040;-69
2021/07/12 04:42:20;;;;;;;19.10;10.27;;;22.30;83.00;;;;;;5017431;28;20495;-68
2021/07/12 04:44:46;;;;;;;15.15;10.40;;;22.20;81.90;;;;;;5024738;28;20033;-68
2021/07/12 04:47:11;;;;;;;14.05;10.25;;;22.20;81.60;;;;;;5022677;28;20064;-69
2021/07/12 04:49:37;;;;;;;15.82;9.93;;;22.20;81.80;;;;;;5020003;28;20455;-69
2021/07/12 04:52:03;;;;;;;11.57;9.20;;;22.20;82.10;;;;;;5020600;28;20493;-69
2021/07/12 04:54:29;;;;;;;13.27;9.10;;;22.20;81.60;;;;;;5015585;28;20482;-69
2021/07/12 04:56:54;;;;;;;13.23;9.93;;;22.10;81.30;;;;;;5018247;28;20076;-69
2021/07/12 04:59:25;;;;;;;15.43;10.10;;;22.10;81.60;;;;;;5027614;28;20481;-69
2021/07/12 05:01:51;;;;;;;12.30;10.05;;;22.10;81.60;;;;;;5021902;28;20041;-69
2021/07/12 05:04:17;;;;;;;14.02;10.35;;;22.10;81.90;;;;;;5012839;28;20053;-69
2021/07/12 05:06:43;;;;;;;13.77;10.18;;;22.10;82.20;;;;;;5012492;28;20025;-69
2021/07/12 05:09:08;;;;;;;14.45;10.40;;;22.20;82.80;;;;;;5024095;28;20041;-69
2021/07/12 05:11:34;;;;;;;13.77;10.10;;;22.20;83.20;;;;;;5018582;28;20437;-68
2021/07/12 05:14:00;;;;;;;15.90;11.90;;;22.20;83.40;;;;;;5024299;28;20108;-69
2021/07/12 05:16:27;;;;;;;23.48;11.93;;;22.20;83.70;;;;;;5012688;28;20505;-68
2021/07/12 05:18:54;;;;;;;28.70;11.55;;;22.20;84.10;;;;;;5025701;28;20030;-68
2021/07/12 05:21:19;;;;;;;40.08;12.18;;;22.30;84.40;;;;;;5010916;28;20070;-68
2021/07/12 05:23:45;;;;;;;16.65;11.73;;;22.30;84.60;;;;;;5012083;28;20049;-69
2021/07/12 05:26:10;;;;;;;19.25;11.98;;;22.30;84.70;;;;;;5011747;28;20068;-69
2021/07/12 05:28:37;;;;;;;18.80;12.20;;;22.30;84.80;;;;;;5025630;28;20104;-69
2021/07/12 05:31:06;;;;;;;23.98;11.25;;;22.30;84.80;;;;;;5017106;28;20159;-69
2021/07/12 05:33:32;;;;;;;20.88;12.30;;;22.40;84.70;;;;;;5011791;28;20022;-69
2021/07/12 05:35:58;;;;;;;23.30;13.50;;;22.30;84.30;;;;;;5013511;28;20038;-69
2021/07/12 05:38:24;;;;;;;52.58;14.13;;;22.30;84.60;;;;;;5012424;28;20022;-69
2021/07/12 05:40:50;;;;;;;28.90;14.70;;;22.40;84.80;;;;;;5011432;28;20037;-69
2021/07/12 05:43:15;;;;;;;28.63;15.45;;;22.40;84.60;;;;;;5012577;28;20449;-69
2021/07/12 05:45:41;;;;;;;30.75;16.90;;;22.40;85.00;;;;;;5020435;28;20059;-69
2021/07/12 05:48:08;;;;;;;23.92;16.52;;;22.40;84.80;;;;;;5012991;28;20386;-69
2021/07/12 05:50:34;;;;;;;31.23;17.90;;;22.40;84.50;;;;;;5019023;28;20049;-69
2021/07/12 05:53:00;;;;;;;28.13;18.67;;;22.40;85.00;;;;;;5013270;28;20033;-68
2021/07/12 05:55:28;;;;;;;30.67;18.63;;;22.40;85.20;;;;;;5014478;28;20503;-69
2021/07/12 05:57:54;;;;;;;32.63;17.35;;;22.50;85.40;;;;;;5024185;28;20440;-68
2021/07/12 06:00:20;;;;;;;26.05;16.67;;;22.40;85.40;;;;;;5013569;28;20117;-69
2021/07/12 06:02:47;;;;;;;31.10;17.08;;;22.40;83.90;;;;;;5017025;28;20029;-69
2021/07/12 06:05:13;;;;;;;32.58;16.98;;;22.40;83.60;;;;;;5019022;28;20184;-69
2021/07/12 06:07:39;;;;;;;30.02;19.83;;;22.40;83.60;;;;;;5024029;28;20038;-69
2021/07/12 06:10:06;;;;;;;43.80;20.92;;;22.40;83.90;;;;;;5026455;28;20124;-69
2021/07/12 06:12:32;;;;;;;30.92;18.55;;;22.40;84.40;;;;;;5019661;28;20057;-68
2021/07/12 06:14:58;;;;;;;30.67;18.33;;;22.40;84.50;;;;;;5027323;28;20053;-69
2021/07/12 06:17:23;;;;;;;33.60;19.35;;;22.40;83.80;;;;;;5013757;28;20477;-69
2021/07/12 06:19:49;;;;;;;31.02;20.20;;;22.40;83.60;;;;;;5015921;28;20390;-69
2021/07/12 06:22:15;;;;;;;31.65;19.55;;;22.40;83.20;;;;;;5014307;28;20048;-69
2021/07/12 06:24:40;;;;;;;31.60;19.98;;;22.40;83.30;;;;;;5014197;28;20030;-69
2021/07/12 06:27:06;;;;;;;34.30;22.65;;;22.40;83.20;;;;;;5015387;28;20018;-69
2021/07/12 06:29:32;;;;;;;35.83;19.70;;;22.40;84.20;;;;;;5014647;28;20516;-69
2021/07/12 06:31:57;;;;;;;41.08;21.48;;;22.40;84.20;;;;;;5017029;28;20116;-69
2021/07/12 06:34:23;;;;;;;32.67;20.88;;;22.50;83.80;;;;;;5023057;28;20022;-69
2021/07/12 06:36:49;;;;;;;30.27;20.98;;;22.50;83.40;;;;;;5028339;28;20033;-69
2021/07/12 06:39:16;;;;;;;36.78;20.95;;;22.40;83.30;;;;;;5016509;28;20029;-69
2021/07/12 06:41:41;;;;;;;30.88;20.05;;;22.50;83.80;;;;;;5014969;28;20026;-69
2021/07/12 06:44:07;;;;;;;30.20;17.60;;;22.50;83.60;;;;;;5013749;28;20103;-69
2021/07/12 06:46:42;;;;;;;31.02;18.45;;;22.50;83.40;;;;;;5013409;28;20040;-69
2021/07/12 06:49:08;;;;;;;30.23;18.10;;;22.60;82.60;;;;;;5019856;28;20030;-69
2021/07/12 06:51:34;;;;;;;32.75;21.02;;;22.50;82.70;;;;;;5018811;28;20121;-71
2021/07/12 06:54:00;;;;;;;31.17;20.25;;;22.50;82.90;;;;;;5014733;28;20125;-70
2021/07/12 06:56:26;;;;;;;29.38;19.33;;;22.50;83.00;;;;;;5013977;28;20026;-71
2021/07/12 06:58:52;;;;;;;29.80;19.35;;;22.50;83.00;;;;;;5018718;28;20025;-70
2021/07/12 07:01:18;;;;;;;28.63;18.17;;;22.60;82.90;;;;;;5017770;28;20389;-73
2021/07/12 07:03:44;;;;;;;32.90;17.58;;;22.60;82.90;;;;;;5012763;28;20105;-70
2021/07/12 07:06:10;;;;;;;20.80;13.75;;;22.60;83.10;;;;;;5016730;28;20030;-70
2021/07/12 07:08:37;;;;;;;26.08;17.88;;;22.60;82.30;;;;;;5016183;28;20615;-70
2021/07/12 07:11:04;;;;;;;29.63;16.63;;;22.60;82.90;;;;;;5019325;28;20033;-70
2021/07/12 07:13:30;;;;;;;27.40;18.17;;;22.70;82.80;;;;;;5013071;28;20026;-70
2021/07/12 07:15:59;;;;;;;25.38;16.67;;;22.60;83.00;;;;;;5024061;28;20049;-71
2021/07/12 07:18:25;;;;;;;27.73;16.60;;;22.70;83.50;;;;;;5026682;28;20039;-70
2021/07/12 07:20:51;;;;;;;29.58;18.52;;;22.80;83.80;;;;;;5016851;28;20380;-73
2021/07/12 07:23:17;;;;;;;30.80;20.77;;;22.80;83.80;;;;;;5016419;28;20026;-71
2021/07/12 07:25:43;;;;;;;28.85;18.50;;;22.90;84.30;;;;;;5015389;28;20034;-70
2021/07/12 07:28:10;;;;;;;26.05;16.92;;;23.00;83.90;;;;;;5018145;28;20041;-70
2021/07/12 07:30:35;;;;;;;28.08;15.88;;;23.00;83.90;;;;;;5022255;28;20028;-71
2021/07/12 07:33:01;;;;;;;28.25;17.30;;;23.10;83.90;;;;;;5018006;28;20032;-70
2021/07/12 07:35:27;;;;;;;32.05;18.00;;;23.20;84.00;;;;;;5018202;28;20066;-70
2021/07/12 07:37:53;;;;;;;29.88;19.27;;;23.20;84.20;;;;;;5014897;28;20061;-70
2021/07/12 07:40:20;;;;;;;26.35;17.48;;;23.30;84.40;;;;;;5012881;28;20072;-73
2021/07/12 07:42:46;;;;;;;27.50;16.33;;;23.30;84.50;;;;;;5015942;28;20381;-69
2021/07/12 07:45:13;;;;;;;21.52;14.00;;;23.50;84.50;;;;;;5020291;28;20119;-70
2021/07/12 07:47:42;;;;;;;23.45;16.73;;;23.50;84.80;;;;;;5012319;28;20080;-70
2021/07/12 07:50:09;;;;;;;21.27;14.35;;;23.60;84.10;;;;;;5016263;28;20037;-70
2021/07/12 07:52:35;;;;;;;27.60;16.40;;;23.60;83.30;;;;;;5013980;28;20381;-70
2021/07/12 07:55:02;;;;;;;21.52;13.80;;;23.70;82.90;;;;;;5015967;28;20033;-70
2021/07/12 07:57:28;;;;;;;21.70;14.73;;;23.70;82.60;;;;;;5013572;28;20083;-74
2021/07/12 07:59:53;;;;;;;23.67;13.45;;;23.70;82.10;;;;;;5020194;28;20034;-70
2021/07/12 08:02:19;;;;;;;22.98;14.20;;;23.70;82.10;;;;;;5016070;28;20119;-70
2021/07/12 08:04:45;;;;;;;19.63;13.57;;;23.80;82.00;;;;;;5021267;28;20069;-70
2021/07/12 08:07:11;;;;;;;21.42;13.88;;;23.80;81.90;;;;;;5023534;28;20389;-70
2021/07/12 08:09:36;;;;;;;20.30;13.48;;;23.80;81.70;;;;;;5013030;28;20030;-70
2021/07/12 08:12:03;;;;;;;18.98;13.50;;;23.90;81.70;;;;;;5027261;28;20062;-70
2021/07/12 08:14:35;;;;;;;19.45;13.50;;;23.90;81.80;;;;;;5031236;28;20057;-70
2021/07/12 08:17:04;;;;;;;24.60;14.27;;;24.00;82.00;;;;;;5031693;28;20029;-71
2021/07/12 08:19:30;;;;;;;29.58;15.30;;;24.00;82.00;;;;;;5030323;28;20037;-70
2021/07/12 08:21:55;;;;;;;24.52;14.48;;;24.00;81.80;;;;;;5030691;28;20025;-71
2021/07/12 08:24:21;;;;;;;23.80;13.18;;;24.10;81.90;;;;;;5015768;28;20477;-71
2021/07/12 08:26:46;;;;;;;27.40;12.85;;;24.00;81.60;;;;;;5022688;28;20393;-71
2021/07/12 08:29:12;;;;;;;18.48;11.27;;;24.10;81.30;;;;;;5023190;28;20026;-71
2021/07/12 08:31:38;;;;;;;15.85;9.75;;;24.10;81.10;;;;;;5018251;28;20511;-71
2021/07/12 08:34:04;;;;;;;11.25;8.55;;;24.20;80.60;;;;;;5019991;28;20038;-71
2021/07/12 08:36:29;;;;;;;13.60;8.68;;;24.20;80.20;;;;;;5016111;28;20103;-71
2021/07/12 08:38:55;;;;;;;9.80;7.28;;;24.30;79.80;;;;;;5022284;28;20029;-71
2021/07/12 08:41:22;;;;;;;10.77;8.27;;;24.30;79.20;;;;;;5012575;28;20123;-71
2021/07/12 08:43:47;;;;;;;14.40;9.75;;;24.40;78.80;;;;;;5010877;28;20109;-70
2021/07/12 08:46:13;;;;;;;12.20;8.68;;;24.40;79.20;;;;;;5012483;28;20120;-71
2021/07/12 08:48:39;;;;;;;13.93;9.02;;;24.40;78.80;;;;;;5022227;28;20527;-71
2021/07/12 08:51:04;;;;;;;12.15;9.25;;;24.40;78.30;;;;;;5015832;28;20048;-71
2021/07/12 08:53:30;;;;;;;17.63;8.98;;;24.40;78.30;;;;;;5018608;28;20075;-71
2021/07/12 08:55:56;;;;;;;15.48;9.27;;;24.50;78.50;;;;;;5024901;28;20524;-71
2021/07/12 08:58:24;;;;;;;22.33;9.35;;;24.50;78.30;;;;;;5020875;28;20037;-71
2021/07/12 09:01:05;;;;;;;14.48;10.10;;;24.60;78.20;;;;;;5019365;28;20083;-70
2021/07/12 09:03:36;;;;;;;14.13;9.10;;;24.60;78.10;;;;;;5015124;28;20038;-71
2021/07/12 09:06:05;;;;;;;11.88;8.30;;;24.70;78.10;;;;;;5015746;28;20084;-71
2021/07/12 09:08:42;;;;;;;16.98;9.13;;;24.70;78.00;;;;;;5011017;28;20034;-71
2021/07/12 09:11:18;;;;;;;21.67;10.00;;;24.70;78.00;;;;;;5022623;28;20041;-71
2021/07/12 09:13:51;;;;;;;18.08;9.57;;;24.80;78.20;;;;;;5018501;28;20026;-71
2021/07/12 09:16:28;;;;;;;15.02;8.88;;;24.80;78.10;;;;;;5018383;28;20029;-71
2021/07/12 09:19:10;;;;;;;17.70;9.27;;;24.80;78.00;;;;;;5015896;28;20053;-71
2021/07/12 09:21:43;;;;;;;12.45;8.90;;;24.90;78.30;;;;;;5016794;28;20041;-71
2021/07/12 09:24:16;;;;;;;14.00;9.15;;;24.90;78.30;;;;;;5014670;28;20064;-71
2021/07/12 09:26:43;;;;;;;;;;;24.90;78.40;;;;;;5018167;28;20038;-71
2021/07/12 09:29:21;;;;;;;12.65;8.82;;;24.90;78.10;;;;;;5013448;28;20004;-71
2021/07/12 09:31:48;;;;;;;15.65;8.85;;;24.90;78.10;;;;;;5013802;28;20080;-71
2021/07/12 09:34:14;;;;;;;32.80;8.63;;;24.90;78.00;;;;;;5012045;28;20022;-71
2021/07/12 09:36:40;;;;;;;21.42;8.75;;;24.90;78.10;;;;;;5013907;28;20022;-71
2021/07/12 09:39:39;;;;;;;13.77;8.40;;;24.90;78.30;;;;;;5013612;28;20030;-71
2021/07/12 09:42:08;;;;;;;14.77;10.00;;;24.90;78.50;;;;;;4994264;28;20042;-71
2021/07/12 09:44:38;;;;;;;13.23;9.55;;;25.00;78.40;;;;;;5012932;28;20413;-71
2021/07/12 09:47:10;;;;;;;15.88;10.85;;;25.00;78.60;;;;;;5021270;28;20108;-73
2021/07/12 09:49:37;;;;;;;19.97;11.30;;;25.00;78.70;;;;;;5020402;28;20033;-72
2021/07/12 09:52:06;;;;;;;16.80;10.60;;;25.00;78.70;;;;;;5028132;28;20385;-72
2021/07/12 09:54:36;;;;;;;15.88;11.85;;;25.00;78.80;;;;;;5026753;28;20363;-67
2021/07/12 09:57:11;;;;;;;42.53;16.90;;;25.00;79.30;;;;;;5019557;28;20029;-68
2021/07/12 10:00:03;;;;;;;16.48;12.07;;;25.10;79.40;;;;;;5023614;28;20034;-69
2021/07/12 10:02:38;;;;;;;27.80;11.73;;;25.10;79.10;;;;;;5017704;28;20017;-67
2021/07/12 10:05:09;;;;;;;15.82;11.65;;;25.10;79.30;;;;;;5017146;28;20128;-67
2021/07/12 10:07:36;;;;;;;23.13;14.40;;;25.10;78.70;;;;;;5015101;28;20022;-67
2021/07/12 10:10:05;;;;;;;25.35;15.98;;;25.20;78.70;;;;;;5029293;28;20116;-66
2021/07/12 10:12:31;;;;;;;31.70;21.10;;;25.20;79.10;;;;;;5035749;28;20103;-67
2021/07/12 10:14:57;;;;;;;28.45;20.50;;;25.20;80.00;;;;;;5030115;28;20108;-67
2021/07/12 10:17:23;;;;;;;28.23;17.55;;;25.30;79.90;;;;;;5027757;28;20026;-67
2021/07/12 10:19:50;;;;;;;27.23;18.35;;;25.30;79.40;;;;;;5028792;28;20044;-67
2021/07/12 10:22:16;;;;;;;27.27;16.40;;;25.40;79.30;;;;;;5026482;28;20033;-67
2021/07/12 10:24:47;;;;;;;23.48;16.63;;;25.40;79.00;;;;;;5021202;28;20091;-69
2021/07/12 10:27:27;;;;;;;25.15;18.35;;;25.50;78.90;;;;;;5020185;28;20026;-70
2021/07/12 10:29:55;;;;;;;31.77;22.15;;;25.50;79.00;;;;;;5020011;28;20045;-70
2021/07/12 10:32:26;;;;;;;28.50;19.98;;;25.50;79.00;;;;;;5015905;28;20034;-69
2021/07/12 10:34:54;;;;;;;33.55;19.92;;;25.60;78.90;;;;;;5020395;28;20029;-69
2021/07/12 10:37:28;;;;;;;26.63;19.70;;;25.70;78.60;;;;;;5021650;28;20032;-69
2021/07/12 10:40:04;;;;;;;23.73;16.23;;;25.70;78.40;;;;;;5024187;28;20036;-69
2021/07/12 10:42:45;;;;;;;24.25;16.38;;;25.80;77.30;;;;;;5026493;28;20025;-69
2021/07/12 10:45:40;;;;;;;19.33;13.82;;;25.80;76.70;;;;;;5013716;28;20056;-69
2021/07/12 10:48:09;;;;;;;21.92;14.95;;;25.90;76.40;;;;;;5017896;28;20044;-69
2021/07/12 10:50:35;;;;;;;23.15;18.02;;;25.90;76.60;;;;;;5023099;28;20025;-69
2021/07/12 10:53:24;;;;;;;20.95;16.02;;;26.00;76.70;;;;;;5015640;28;20465;-69
2021/07/12 10:56:07;;;;;;;25.25;17.52;;;26.00;76.40;;;;;;5024977;28;20033;-69
2021/07/12 10:58:35;;;;;;;21.70;17.02;;;26.10;76.30;;;;;;5021109;28;20106;-69
2021/07/12 11:01:07;;;;;;;25.52;15.52;;;26.20;75.40;;;;;;5021441;28;20045;-69
2021/07/12 11:03:49;;;;;;;19.90;15.98;;;26.20;75.30;;;;;;5021115;28;20026;-69
2021/07/12 11:06:20;;;;;;;40.10;16.30;;;26.20;75.40;;;;;;5014376;28;20569;-69
2021/07/12 11:08:58;;;;;;;30.08;16.73;;;26.20;75.30;;;;;;5021179;28;20080;-69
2021/07/12 11:11:23;;;;;;;30.02;17.48;;;26.30;75.60;;;;;;5015758;28;20041;-69
2021/07/12 11:13:52;;;;;;;25.17;17.23;;;26.30;75.30;;;;;;5024157;28;20398;-69
2021/07/12 11:16:20;;;;;;;35.03;18.98;;;26.40;75.10;;;;;;5022870;28;20045;-69
2021/07/12 11:18:47;;;;;;;41.10;20.13;;;26.40;75.70;;;;;;5025219;28;20034;-70
2021/07/12 11:21:15;;;;;;;28.38;20.02;;;26.40;75.50;;;;;;5018620;28;20030;-70
2021/07/12 11:23:53;;;;;;;31.23;19.77;;;26.50;75.80;;;;;;5018775;28;20099;-69
2021/07/12 11:26:19;;;;;;;24.23;18.02;;;26.50;75.50;;;;;;5013651;28;20481;-70
2021/07/12 11:28:48;;;;;;;29.98;20.13;;;26.50;74.70;;;;;;5013263;28;20105;-69
2021/07/12 11:31:47;;;;;;;47.22;18.73;;;26.50;75.10;;;;;;5020162;28;20065;-71
2021/07/12 11:34:21;;;;;;;27.50;18.27;;;26.60;75.00;;;;;;5017584;28;20654;-68
2021/07/12 11:36:48;;;;;;;28.80;19.35;;;26.60;75.20;;;;;;5017776;28;20460;-68
2021/07/12 11:39:16;;;;;;;29.33;19.10;;;26.60;75.00;;;;;;5014621;28;20028;-68
2021/07/12 11:41:42;;;;;;;31.15;20.88;;;26.60;75.30;;;;;;5015542;28;20072;-68
2021/07/12 11:44:10;;;;;;;117.57;28.95;;;26.60;75.40;;;;;;5017452;28;20474;-68
2021/07/12 11:46:36;;;;;;;30.15;21.13;;;26.60;75.10;;;;;;5015210;28;20025;-68
2021/07/12 11:49:08;;;;;;;32.67;20.95;;;26.60;75.30;;;;;;5019708;28;20124;-68
2021/07/12 11:51:33;;;;;;;31.92;20.77;;;26.70;74.90;;;;;;5015872;28;20029;-69
2021/07/12 11:53:59;;;;;;;29.13;19.92;;;26.70;74.60;;;;;;5029204;28;20033;-70
2021/07/12 11:56:25;;;;;;;34.53;19.50;;;26.70;74.30;;;;;;5024468;28;20056;-67
2021/07/12 11:58:59;;;;;;;29.10;17.48;;;26.70;74.20;;;;;;5020829;28;20465;-68
2021/07/12 12:01:26;;;;;;;22.92;17.33;;;26.90;74.40;;;;;;5016890;28;20030;-68
2021/07/12 12:04:04;;;;;;;30.10;15.65;;;26.90;74.10;;;;;;5011535;28;20049;-68
2021/07/12 12:06:31;;;;;;;19.23;14.63;;;26.90;74.00;;;;;;5014609;28;20092;-68
2021/07/12 12:09:04;;;;;;;19.95;15.30;;;26.90;73.70;;;;;;5014613;28;20084;-68
2021/07/12 12:11:31;;;;;;;18.30;15.13;;;26.90;73.00;;;;;;5013174;28;20037;-68
2021/07/12 12:13:58;;;;;;;25.40;17.50;;;26.90;72.40;;;;;;5011909;28;20038;-68
2021/07/12 12:16:28;;;;;;;26.23;19.48;;;27.00;72.50;;;;;;5012162;28;20037;-71
2021/07/12 12:18:54;;;;;;;22.38;16.23;;;27.00;73.20;;;;;;5012656;28;20103;-68
2021/07/12 12:21:23;;;;;;;29.08;20.08;;;27.10;73.00;;;;;;5023095;28;20535;-68
2021/07/12 12:23:48;;;;;;;23.38;16.65;;;27.10;72.90;;;;;;5012824;28;20054;-68
2021/07/12 12:26:22;;;;;;;23.83;17.08;;;27.20;72.90;;;;;;5024287;28;20053;-68
2021/07/12 12:28:57;;;;;;;23.95;17.08;;;27.20;72.90;;;;;;5015184;28;20477;-68
2021/07/12 12:31:30;;;;;;;17.05;11.90;;;27.30;72.50;;;;;;5014454;28;20473;-67
2021/07/12 12:33:56;;;;;;;14.60;9.32;;;27.30;71.10;;;;;;5011695;28;20060;-68
2021/07/12 12:36:24;;;;;;;12.05;9.02;;;27.30;70.50;;;;;;5010066;28;20477;-68
2021/07/12 12:38:51;;;;;;;17.30;11.70;;;27.30;70.00;;;;;;5020511;28;20385;-68
2021/07/12 12:41:20;;;;;;;15.00;10.65;;;27.40;70.50;;;;;;5017631;28;20042;-68
2021/07/12 12:44:02;;;;;;;20.42;11.77;;;27.40;69.90;;;;;;5014435;28;20021;-68